sensor_id;sensor_type;location;lat;lon;timestamp;P1;durP1;ratioP1;P2;durP2;ratioP2
13807;SDS011;40769;51.512;5.494;2023-06-26T00:01:42;5.43;;;5.03;;
13807;SDS011;40769;51.512;5.494;2023-06-26T00:04:08;4.95;;;4.57;;
13807;SDS011;40769;51.512;5.494;2023-06-26T00:06:39;4.82;;;4.53;;
13807;SDS011;40769;51.512;5.494;2023-06-26T00:09:05;6.40;;;5.90;;
13807;SDS011;40769;51.512;5.494;2023-06-26T00:11:31;6.05;;;5.55;;
13807;SDS011;40769;51.512;5.494;2023-06-26T00:13:58;6.35;;;5.85;;
13807;SDS011;40769;51.512;5.494;2023-06-26T00:16:25;5.70;;;5.30;;
13807;SDS011;40769;51.512;5.494;2023-06-26T00:18:51;5.38;;;4.97;;
13807;SDS011;40769;51.512;5.494;2023-06-26T00:21:17;6.00;;;5.50;;
13807;SDS011;40769;51.512;5.494;2023-06-26T00:23:44;6.00;;;5.50;;
13807;SDS011;40769;51.512;5.494;2023-06-26T00:26:10;6.00;;;5.47;;
13807;SDS011;40769;51.512;5.494;2023-06-26T00:28:36;6.00;;;5.50;;
13807;SDS011;40769;51.512;5.494;2023-06-26T00:31:02;5.20;;;4.80;;
13807;SDS011;40769;51.512;5.494;2023-06-26T00:33:27;5.57;;;5.07;;
13807;SDS011;40769;51.512;5.494;2023-06-26T00:35:53;5.75;;;5.25;;
13807;SDS011;40769;51.512;5.494;2023-06-26T00:38:19;5.85;;;5.35;;
13807;SDS011;40769;51.512;5.494;2023-06-26T00:40:44;6.20;;;5.70;;
13807;SDS011;40769;51.512;5.494;2023-06-26T00:43:10;5.90;;;5.40;;
13807;SDS011;40769;51.512;5.494;2023-06-26T00:45:35;5.53;;;5.13;;
13807;SDS011;40769;51.512;5.494;2023-06-26T00:48:01;6.10;;;5.60;;
13807;SDS011;40769;51.512;5.494;2023-06-26T00:50:27;6.32;;;5.72;;
13807;SDS011;40769;51.512;5.494;2023-06-26T00:52:54;6.03;;;5.53;;
13807;SDS011;40769;51.512;5.494;2023-06-26T00:55:25;6.32;;;5.82;;
13807;SDS011;40769;51.512;5.494;2023-06-26T00:57:51;7.00;;;6.28;;
13807;SDS011;40769;51.512;5.494;2023-06-26T01:00:17;6.63;;;6.13;;
13807;SDS011;40769;51.512;5.494;2023-06-26T01:02:43;7.25;;;6.65;;
13807;SDS011;40769;51.512;5.494;2023-06-26T01:05:08;6.85;;;6.28;;
13807;SDS011;40769;51.512;5.494;2023-06-26T01:07:37;6.05;;;5.55;;
13807;SDS011;40769;51.512;5.494;2023-06-26T01:10:07;6.95;;;6.45;;
13807;SDS011;40769;51.512;5.494;2023-06-26T01:12:33;5.80;;;5.30;;
13807;SDS011;40769;51.512;5.494;2023-06-26T01:14:59;6.53;;;5.93;;
13807;SDS011;40769;51.512;5.494;2023-06-26T01:17:27;6.10;;;5.60;;
13807;SDS011;40769;51.512;5.494;2023-06-26T01:19:57;6.25;;;5.65;;
13807;SDS011;40769;51.512;5.494;2023-06-26T01:27:29;5.97;;;5.38;;
13807;SDS011;40769;51.512;5.494;2023-06-26T01:29:57;5.47;;;4.97;;
13807;SDS011;40769;51.512;5.494;2023-06-26T01:32:25;5.75;;;5.25;;
13807;SDS011;40769;51.512;5.494;2023-06-26T01:34:51;5.25;;;4.80;;
13807;SDS011;40769;51.512;5.494;2023-06-26T01:37:17;5.13;;;4.70;;
13807;SDS011;40769;51.512;5.494;2023-06-26T01:39:43;5.28;;;4.78;;
13807;SDS011;40769;51.512;5.494;2023-06-26T01:42:08;5.55;;;5.07;;
13807;SDS011;40769;51.512;5.494;2023-06-26T01:44:35;4.90;;;4.50;;
13807;SDS011;40769;51.512;5.494;2023-06-26T01:47:07;5.43;;;5.00;;
13807;SDS011;40769;51.512;5.494;2023-06-26T01:49:47;5.38;;;4.88;;
13807;SDS011;40769;51.512;5.494;2023-06-26T01:52:32;5.78;;;5.30;;
13807;SDS011;40769;51.512;5.494;2023-06-26T01:55:15;5.63;;;5.13;;
13807;SDS011;40769;51.512;5.494;2023-06-26T01:57:46;4.57;;;4.18;;
13807;SDS011;40769;51.512;5.494;2023-06-26T02:00:16;5.43;;;4.93;;
13807;SDS011;40769;51.512;5.494;2023-06-26T02:02:44;4.95;;;4.45;;
13807;SDS011;40769;51.512;5.494;2023-06-26T02:05:10;4.85;;;4.45;;
13807;SDS011;40769;51.512;5.494;2023-06-26T02:07:36;5.28;;;4.60;;
13807;SDS011;40769;51.512;5.494;2023-06-26T02:10:02;4.28;;;3.95;;
13807;SDS011;40769;51.512;5.494;2023-06-26T02:12:28;4.50;;;4.10;;
13807;SDS011;40769;51.512;5.494;2023-06-26T02:14:53;4.80;;;4.40;;
13807;SDS011;40769;51.512;5.494;2023-06-26T02:17:19;4.30;;;3.83;;
13807;SDS011;40769;51.512;5.494;2023-06-26T02:19:45;5.15;;;4.63;;
13807;SDS011;40769;51.512;5.494;2023-06-26T02:22:16;4.72;;;4.22;;
13807;SDS011;40769;51.512;5.494;2023-06-26T02:24:46;4.50;;;4.10;;
13807;SDS011;40769;51.512;5.494;2023-06-26T02:27:11;4.38;;;3.97;;
13807;SDS011;40769;51.512;5.494;2023-06-26T02:29:37;4.35;;;4.00;;
13807;SDS011;40769;51.512;5.494;2023-06-26T02:32:04;4.45;;;4.05;;
13807;SDS011;40769;51.512;5.494;2023-06-26T02:34:30;4.43;;;4.10;;
13807;SDS011;40769;51.512;5.494;2023-06-26T02:36:56;4.68;;;4.28;;
13807;SDS011;40769;51.512;5.494;2023-06-26T02:39:23;4.65;;;4.20;;
13807;SDS011;40769;51.512;5.494;2023-06-26T02:41:49;4.38;;;3.97;;
13807;SDS011;40769;51.512;5.494;2023-06-26T02:44:14;4.47;;;3.80;;
13807;SDS011;40769;51.512;5.494;2023-06-26T02:46:40;4.68;;;4.28;;
13807;SDS011;40769;51.512;5.494;2023-06-26T02:49:06;4.90;;;3.90;;
13807;SDS011;40769;51.512;5.494;2023-06-26T02:51:32;4.68;;;4.20;;
13807;SDS011;40769;51.512;5.494;2023-06-26T02:53:58;4.63;;;4.22;;
13807;SDS011;40769;51.512;5.494;2023-06-26T02:56:24;5.22;;;3.50;;
13807;SDS011;40769;51.512;5.494;2023-06-26T02:58:54;3.97;;;3.67;;
13807;SDS011;40769;51.512;5.494;2023-06-26T03:01:20;4.50;;;3.72;;
13807;SDS011;40769;51.512;5.494;2023-06-26T03:03:46;3.65;;;3.30;;
13807;SDS011;40769;51.512;5.494;2023-06-26T03:06:12;4.38;;;3.40;;
13807;SDS011;40769;51.512;5.494;2023-06-26T03:08:38;4.10;;;3.70;;
13807;SDS011;40769;51.512;5.494;2023-06-26T03:11:05;4.78;;;3.38;;
13807;SDS011;40769;51.512;5.494;2023-06-26T03:13:35;4.13;;;3.75;;
13807;SDS011;40769;51.512;5.494;2023-06-26T03:16:02;3.58;;;3.28;;
13807;SDS011;40769;51.512;5.494;2023-06-26T03:18:28;4.00;;;3.60;;
13807;SDS011;40769;51.512;5.494;2023-06-26T03:20:54;3.67;;;3.35;;
13807;SDS011;40769;51.512;5.494;2023-06-26T03:23:21;4.20;;;3.58;;
13807;SDS011;40769;51.512;5.494;2023-06-26T03:25:47;4.50;;;3.60;;
13807;SDS011;40769;51.512;5.494;2023-06-26T03:28:13;5.28;;;3.58;;
13807;SDS011;40769;51.512;5.494;2023-06-26T03:30:39;5.30;;;3.85;;
13807;SDS011;40769;51.512;5.494;2023-06-26T03:33:04;3.95;;;3.55;;
13807;SDS011;40769;51.512;5.494;2023-06-26T03:35:30;4.65;;;3.83;;
13807;SDS011;40769;51.512;5.494;2023-06-26T03:37:56;4.30;;;3.90;;
13807;SDS011;40769;51.512;5.494;2023-06-26T03:40:23;4.28;;;3.25;;
13807;SDS011;40769;51.512;5.494;2023-06-26T03:42:51;4.35;;;3.95;;
13807;SDS011;40769;51.512;5.494;2023-06-26T03:45:17;4.63;;;3.78;;
13807;SDS011;40769;51.512;5.494;2023-06-26T03:47:44;4.75;;;3.80;;
13807;SDS011;40769;51.512;5.494;2023-06-26T03:50:12;6.70;;;4.15;;
13807;SDS011;40769;51.512;5.494;2023-06-26T03:52:38;4.30;;;3.85;;
13807;SDS011;40769;51.512;5.494;2023-06-26T03:55:03;5.60;;;3.95;;
13807;SDS011;40769;51.512;5.494;2023-06-26T03:57:29;4.75;;;3.97;;
13807;SDS011;40769;51.512;5.494;2023-06-26T03:59:55;6.07;;;3.83;;
13807;SDS011;40769;51.512;5.494;2023-06-26T04:02:20;3.95;;;3.65;;
13807;SDS011;40769;51.512;5.494;2023-06-26T04:04:46;4.60;;;3.85;;
13807;SDS011;40769;51.512;5.494;2023-06-26T04:07:12;5.38;;;3.78;;
13807;SDS011;40769;51.512;5.494;2023-06-26T04:09:37;5.25;;;4.20;;
13807;SDS011;40769;51.512;5.494;2023-06-26T04:12:03;5.55;;;3.95;;
13807;SDS011;40769;51.512;5.494;2023-06-26T04:14:29;4.65;;;4.05;;
13807;SDS011;40769;51.512;5.494;2023-06-26T04:16:55;5.47;;;4.43;;
13807;SDS011;40769;51.512;5.494;2023-06-26T04:19:22;4.72;;;3.83;;
13807;SDS011;40769;51.512;5.494;2023-06-26T04:21:48;6.30;;;4.70;;
13807;SDS011;40769;51.512;5.494;2023-06-26T04:24:14;4.55;;;4.15;;
13807;SDS011;40769;51.512;5.494;2023-06-26T04:26:39;5.38;;;4.38;;
13807;SDS011;40769;51.512;5.494;2023-06-26T04:29:08;6.63;;;4.80;;
13807;SDS011;40769;51.512;5.494;2023-06-26T04:31:34;7.32;;;4.90;;
13807;SDS011;40769;51.512;5.494;2023-06-26T04:34:00;5.53;;;3.97;;
13807;SDS011;40769;51.512;5.494;2023-06-26T04:36:25;5.13;;;3.95;;
13807;SDS011;40769;51.512;5.494;2023-06-26T04:38:54;4.47;;;4.07;;
13807;SDS011;40769;51.512;5.494;2023-06-26T04:41:23;5.47;;;3.70;;
13807;SDS011;40769;51.512;5.494;2023-06-26T04:43:49;6.72;;;4.00;;
13807;SDS011;40769;51.512;5.494;2023-06-26T04:46:15;4.80;;;3.83;;
13807;SDS011;40769;51.512;5.494;2023-06-26T04:48:40;6.30;;;4.22;;
13807;SDS011;40769;51.512;5.494;2023-06-26T04:51:06;5.53;;;4.43;;
13807;SDS011;40769;51.512;5.494;2023-06-26T04:53:32;8.38;;;4.85;;
13807;SDS011;40769;51.512;5.494;2023-06-26T04:55:57;7.63;;;4.55;;
13807;SDS011;40769;51.512;5.494;2023-06-26T04:58:23;7.50;;;4.90;;
13807;SDS011;40769;51.512;5.494;2023-06-26T05:00:49;5.25;;;4.50;;
13807;SDS011;40769;51.512;5.494;2023-06-26T05:03:15;7.47;;;4.40;;
13807;SDS011;40769;51.512;5.494;2023-06-26T05:05:42;6.82;;;3.88;;
13807;SDS011;40769;51.512;5.494;2023-06-26T05:10:43;6.60;;;3.95;;
13807;SDS011;40769;51.512;5.494;2023-06-26T05:13:10;5.15;;;3.55;;
13807;SDS011;40769;51.512;5.494;2023-06-26T05:15:36;6.60;;;3.97;;
13807;SDS011;40769;51.512;5.494;2023-06-26T05:18:02;5.15;;;3.85;;
13807;SDS011;40769;51.512;5.494;2023-06-26T05:20:27;6.72;;;3.95;;
13807;SDS011;40769;51.512;5.494;2023-06-26T05:22:53;6.47;;;3.28;;
13807;SDS011;40769;51.512;5.494;2023-06-26T05:25:20;6.68;;;4.63;;
13807;SDS011;40769;51.512;5.494;2023-06-26T05:27:46;5.93;;;4.60;;
13807;SDS011;40769;51.512;5.494;2023-06-26T05:30:13;6.22;;;3.90;;
13807;SDS011;40769;51.512;5.494;2023-06-26T05:32:39;7.72;;;4.10;;
13807;SDS011;40769;51.512;5.494;2023-06-26T05:35:06;4.25;;;3.15;;
13807;SDS011;40769;51.512;5.494;2023-06-26T05:37:32;6.63;;;4.22;;
13807;SDS011;40769;51.512;5.494;2023-06-26T05:39:59;5.03;;;3.55;;
13807;SDS011;40769;51.512;5.494;2023-06-26T05:42:28;8.02;;;4.38;;
13807;SDS011;40769;51.512;5.494;2023-06-26T05:44:55;5.78;;;3.97;;
13807;SDS011;40769;51.512;5.494;2023-06-26T05:47:21;6.15;;;3.17;;
13807;SDS011;40769;51.512;5.494;2023-06-26T05:49:47;6.22;;;3.67;;
13807;SDS011;40769;51.512;5.494;2023-06-26T05:52:12;4.63;;;3.38;;
13807;SDS011;40769;51.512;5.494;2023-06-26T05:54:39;7.47;;;3.75;;
13807;SDS011;40769;51.512;5.494;2023-06-26T05:57:05;6.90;;;3.42;;
13807;SDS011;40769;51.512;5.494;2023-06-26T05:59:31;5.35;;;3.25;;
13807;SDS011;40769;51.512;5.494;2023-06-26T06:01:57;5.00;;;3.22;;
13807;SDS011;40769;51.512;5.494;2023-06-26T06:04:23;6.55;;;3.60;;
13807;SDS011;40769;51.512;5.494;2023-06-26T06:06:49;5.75;;;3.70;;
13807;SDS011;40769;51.512;5.494;2023-06-26T06:09:17;6.97;;;3.53;;
13807;SDS011;40769;51.512;5.494;2023-06-26T06:11:43;6.88;;;4.22;;
13807;SDS011;40769;51.512;5.494;2023-06-26T06:14:09;6.10;;;3.78;;
13807;SDS011;40769;51.512;5.494;2023-06-26T06:16:34;6.10;;;3.70;;
13807;SDS011;40769;51.512;5.494;2023-06-26T06:19:00;6.70;;;3.50;;
13807;SDS011;40769;51.512;5.494;2023-06-26T06:21:27;6.05;;;3.58;;
13807;SDS011;40769;51.512;5.494;2023-06-26T06:23:53;5.00;;;2.85;;
13807;SDS011;40769;51.512;5.494;2023-06-26T06:26:19;6.35;;;3.80;;
13807;SDS011;40769;51.512;5.494;2023-06-26T06:28:45;5.95;;;2.67;;
13807;SDS011;40769;51.512;5.494;2023-06-26T06:31:10;4.20;;;2.50;;
13807;SDS011;40769;51.512;5.494;2023-06-26T06:33:36;5.32;;;3.38;;
13807;SDS011;40769;51.512;5.494;2023-06-26T06:36:02;5.80;;;3.00;;
13807;SDS011;40769;51.512;5.494;2023-06-26T06:38:27;5.75;;;3.10;;
13807;SDS011;40769;51.512;5.494;2023-06-26T06:40:53;5.22;;;2.67;;
13807;SDS011;40769;51.512;5.494;2023-06-26T06:43:19;6.70;;;2.88;;
13807;SDS011;40769;51.512;5.494;2023-06-26T06:45:44;4.43;;;2.50;;
13807;SDS011;40769;51.512;5.494;2023-06-26T06:48:10;5.20;;;2.72;;
13807;SDS011;40769;51.512;5.494;2023-06-26T06:50:36;3.33;;;2.40;;
13807;SDS011;40769;51.512;5.494;2023-06-26T06:53:01;5.30;;;2.75;;
13807;SDS011;40769;51.512;5.494;2023-06-26T06:55:27;4.38;;;2.47;;
13807;SDS011;40769;51.512;5.494;2023-06-26T06:57:53;6.05;;;2.60;;
13807;SDS011;40769;51.512;5.494;2023-06-26T07:00:18;5.55;;;2.72;;
13807;SDS011;40769;51.512;5.494;2023-06-26T07:02:44;3.95;;;2.40;;
13807;SDS011;40769;51.512;5.494;2023-06-26T07:05:11;3.67;;;2.58;;
13807;SDS011;40769;51.512;5.494;2023-06-26T07:07:37;5.50;;;2.50;;
13807;SDS011;40769;51.512;5.494;2023-06-26T07:10:08;5.65;;;2.50;;
13807;SDS011;40769;51.512;5.494;2023-06-26T07:12:35;4.53;;;2.47;;
13807;SDS011;40769;51.512;5.494;2023-06-26T07:15:02;4.10;;;2.30;;
13807;SDS011;40769;51.512;5.494;2023-06-26T07:17:29;5.38;;;2.35;;
13807;SDS011;40769;51.512;5.494;2023-06-26T07:19:56;2.53;;;2.10;;
13807;SDS011;40769;51.512;5.494;2023-06-26T07:22:22;4.93;;;2.65;;
13807;SDS011;40769;51.512;5.494;2023-06-26T07:24:48;5.53;;;2.55;;
13807;SDS011;40769;51.512;5.494;2023-06-26T07:27:17;4.13;;;2.42;;
13807;SDS011;40769;51.512;5.494;2023-06-26T07:29:43;4.68;;;2.60;;
13807;SDS011;40769;51.512;5.494;2023-06-26T07:32:09;5.78;;;2.63;;
13807;SDS011;40769;51.512;5.494;2023-06-26T07:34:35;5.03;;;2.40;;
13807;SDS011;40769;51.512;5.494;2023-06-26T07:37:01;3.95;;;2.30;;
13807;SDS011;40769;51.512;5.494;2023-06-26T07:39:27;3.67;;;2.30;;
13807;SDS011;40769;51.512;5.494;2023-06-26T07:41:52;2.75;;;2.10;;
13807;SDS011;40769;51.512;5.494;2023-06-26T07:44:18;3.90;;;2.13;;
13807;SDS011;40769;51.512;5.494;2023-06-26T07:46:44;2.97;;;2.15;;
13807;SDS011;40769;51.512;5.494;2023-06-26T07:49:10;4.18;;;2.33;;
13807;SDS011;40769;51.512;5.494;2023-06-26T07:51:36;3.95;;;2.47;;
13807;SDS011;40769;51.512;5.494;2023-06-26T07:54:01;5.03;;;3.25;;
13807;SDS011;40769;51.512;5.494;2023-06-26T07:56:27;4.82;;;2.88;;
13807;SDS011;40769;51.512;5.494;2023-06-26T07:58:53;3.63;;;2.90;;
13807;SDS011;40769;51.512;5.494;2023-06-26T08:01:18;4.00;;;3.00;;
13807;SDS011;40769;51.512;5.494;2023-06-26T08:03:44;4.55;;;2.80;;
13807;SDS011;40769;51.512;5.494;2023-06-26T08:06:10;3.58;;;2.40;;
13807;SDS011;40769;51.512;5.494;2023-06-26T08:08:35;2.60;;;2.20;;
13807;SDS011;40769;51.512;5.494;2023-06-26T08:11:01;2.97;;;2.00;;
13807;SDS011;40769;51.512;5.494;2023-06-26T08:13:27;2.97;;;1.85;;
13807;SDS011;40769;51.512;5.494;2023-06-26T08:15:53;2.50;;;1.70;;
13807;SDS011;40769;51.512;5.494;2023-06-26T08:18:18;3.53;;;1.60;;
13807;SDS011;40769;51.512;5.494;2023-06-26T08:20:44;2.20;;;1.92;;
13807;SDS011;40769;51.512;5.494;2023-06-26T08:23:09;2.38;;;1.70;;
13807;SDS011;40769;51.512;5.494;2023-06-26T08:25:35;2.05;;;1.50;;
13807;SDS011;40769;51.512;5.494;2023-06-26T08:28:01;2.90;;;1.40;;
13807;SDS011;40769;51.512;5.494;2023-06-26T08:30:26;2.20;;;1.45;;
13807;SDS011;40769;51.512;5.494;2023-06-26T08:32:56;2.90;;;1.42;;
13807;SDS011;40769;51.512;5.494;2023-06-26T08:35:22;2.05;;;1.55;;
13807;SDS011;40769;51.512;5.494;2023-06-26T08:37:48;2.72;;;1.40;;
13807;SDS011;40769;51.512;5.494;2023-06-26T08:40:16;3.08;;;1.40;;
13807;SDS011;40769;51.512;5.494;2023-06-26T08:42:43;2.63;;;1.35;;
13807;SDS011;40769;51.512;5.494;2023-06-26T08:45:08;2.45;;;1.40;;
13807;SDS011;40769;51.512;5.494;2023-06-26T08:47:34;1.88;;;1.13;;
13807;SDS011;40769;51.512;5.494;2023-06-26T08:50:02;2.00;;;1.38;;
13807;SDS011;40769;51.512;5.494;2023-06-26T08:52:37;3.17;;;1.27;;
13807;SDS011;40769;51.512;5.494;2023-06-26T08:55:16;10.63;;;1.40;;
13807;SDS011;40769;51.512;5.494;2023-06-26T08:57:44;1.35;;;0.93;;
13807;SDS011;40769;51.512;5.494;2023-06-26T09:00:10;4.60;;;1.15;;
13807;SDS011;40769;51.512;5.494;2023-06-26T09:02:36;1.77;;;1.08;;
13807;SDS011;40769;51.512;5.494;2023-06-26T09:05:03;2.20;;;1.30;;
13807;SDS011;40769;51.512;5.494;2023-06-26T09:07:29;2.08;;;1.27;;
13807;SDS011;40769;51.512;5.494;2023-06-26T09:09:55;4.15;;;1.45;;
13807;SDS011;40769;51.512;5.494;2023-06-26T09:12:20;4.10;;;1.27;;
13807;SDS011;40769;51.512;5.494;2023-06-26T09:14:49;2.55;;;1.17;;
13807;SDS011;40769;51.512;5.494;2023-06-26T09:17:33;3.72;;;1.20;;
13807;SDS011;40769;51.512;5.494;2023-06-26T09:20:05;2.92;;;1.30;;
13807;SDS011;40769;51.512;5.494;2023-06-26T09:22:33;1.52;;;1.05;;
13807;SDS011;40769;51.512;5.494;2023-06-26T09:25:04;2.58;;;1.10;;
13807;SDS011;40769;51.512;5.494;2023-06-26T09:27:34;1.63;;;1.20;;
13807;SDS011;40769;51.512;5.494;2023-06-26T09:30:00;1.77;;;1.10;;
13807;SDS011;40769;51.512;5.494;2023-06-26T09:32:27;2.85;;;1.27;;
13807;SDS011;40769;51.512;5.494;2023-06-26T09:34:53;2.85;;;1.30;;
13807;SDS011;40769;51.512;5.494;2023-06-26T09:37:22;1.20;;;0.95;;
13807;SDS011;40769;51.512;5.494;2023-06-26T09:39:50;2.13;;;1.17;;
13807;SDS011;40769;51.512;5.494;2023-06-26T09:42:16;1.83;;;1.10;;
13807;SDS011;40769;51.512;5.494;2023-06-26T09:44:45;2.25;;;1.00;;
13807;SDS011;40769;51.512;5.494;2023-06-26T09:47:11;1.55;;;1.13;;
13807;SDS011;40769;51.512;5.494;2023-06-26T09:49:40;1.70;;;1.10;;
13807;SDS011;40769;51.512;5.494;2023-06-26T09:52:07;1.90;;;1.20;;
13807;SDS011;40769;51.512;5.494;2023-06-26T09:54:33;2.30;;;1.20;;
13807;SDS011;40769;51.512;5.494;2023-06-26T09:57:07;2.92;;;1.20;;
13807;SDS011;40769;51.512;5.494;2023-06-26T09:59:42;3.25;;;1.20;;
13807;SDS011;40769;51.512;5.494;2023-06-26T10:02:12;1.88;;;1.38;;
13807;SDS011;40769;51.512;5.494;2023-06-26T10:04:38;3.17;;;1.00;;
13807;SDS011;40769;51.512;5.494;2023-06-26T10:07:08;2.25;;;0.68;;
13807;SDS011;40769;51.512;5.494;2023-06-26T10:09:45;2.78;;;1.15;;
13807;SDS011;40769;51.512;5.494;2023-06-26T10:12:22;1.60;;;1.00;;
13807;SDS011;40769;51.512;5.494;2023-06-26T10:14:58;2.13;;;1.05;;
13807;SDS011;40769;51.512;5.494;2023-06-26T10:17:28;1.40;;;0.73;;
13807;SDS011;40769;51.512;5.494;2023-06-26T10:19:58;1.63;;;0.77;;
13807;SDS011;40769;51.512;5.494;2023-06-26T10:22:27;2.03;;;1.08;;
13807;SDS011;40769;51.512;5.494;2023-06-26T10:24:58;1.77;;;1.15;;
13807;SDS011;40769;51.512;5.494;2023-06-26T10:27:26;1.52;;;0.88;;
13807;SDS011;40769;51.512;5.494;2023-06-26T10:29:56;1.17;;;0.98;;
13807;SDS011;40769;51.512;5.494;2023-06-26T10:32:26;1.65;;;0.80;;
13807;SDS011;40769;51.512;5.494;2023-06-26T10:34:55;1.23;;;0.90;;
13807;SDS011;40769;51.512;5.494;2023-06-26T10:37:40;2.97;;;1.10;;
13807;SDS011;40769;51.512;5.494;2023-06-26T10:40:10;1.38;;;0.82;;
13807;SDS011;40769;51.512;5.494;2023-06-26T10:42:37;1.15;;;0.95;;
13807;SDS011;40769;51.512;5.494;2023-06-26T10:45:16;1.75;;;0.80;;
13807;SDS011;40769;51.512;5.494;2023-06-26T10:47:46;2.63;;;1.10;;
13807;SDS011;40769;51.512;5.494;2023-06-26T10:55:56;1.42;;;1.08;;
13807;SDS011;40769;51.512;5.494;2023-06-26T10:58:30;1.25;;;0.90;;
13807;SDS011;40769;51.512;5.494;2023-06-26T11:06:27;0.80;;;0.77;;
13807;SDS011;40769;51.512;5.494;2023-06-26T11:09:00;1.38;;;1.00;;
13807;SDS011;40769;51.512;5.494;2023-06-26T11:14:24;1.70;;;0.98;;
13807;SDS011;40769;51.512;5.494;2023-06-26T11:16:56;1.80;;;0.90;;
13807;SDS011;40769;51.512;5.494;2023-06-26T11:19:23;1.17;;;0.80;;
13807;SDS011;40769;51.512;5.494;2023-06-26T11:21:51;1.70;;;1.00;;
13807;SDS011;40769;51.512;5.494;2023-06-26T11:24:22;1.17;;;0.90;;
13807;SDS011;40769;51.512;5.494;2023-06-26T11:26:49;1.48;;;0.82;;
13807;SDS011;40769;51.512;5.494;2023-06-26T11:29:14;1.65;;;0.82;;
13807;SDS011;40769;51.512;5.494;2023-06-26T11:31:41;1.70;;;0.80;;
13807;SDS011;40769;51.512;5.494;2023-06-26T11:34:11;1.70;;;1.17;;
13807;SDS011;40769;51.512;5.494;2023-06-26T11:36:38;1.70;;;1.05;;
13807;SDS011;40769;51.512;5.494;2023-06-26T11:39:06;2.10;;;0.93;;
13807;SDS011;40769;51.512;5.494;2023-06-26T11:41:32;2.95;;;0.98;;
13807;SDS011;40769;51.512;5.494;2023-06-26T11:44:05;1.75;;;0.95;;
13807;SDS011;40769;51.512;5.494;2023-06-26T11:46:34;0.77;;;0.77;;
13807;SDS011;40769;51.512;5.494;2023-06-26T11:49:02;1.55;;;1.10;;
13807;SDS011;40769;51.512;5.494;2023-06-26T11:51:32;2.33;;;1.15;;
13807;SDS011;40769;51.512;5.494;2023-06-26T11:54:00;2.08;;;0.90;;
13807;SDS011;40769;51.512;5.494;2023-06-26T11:56:28;1.77;;;0.90;;
13807;SDS011;40769;51.512;5.494;2023-06-26T12:04:05;1.73;;;1.00;;
13807;SDS011;40769;51.512;5.494;2023-06-26T12:06:35;1.92;;;0.98;;
13807;SDS011;40769;51.512;5.494;2023-06-26T12:09:04;1.67;;;0.93;;
13807;SDS011;40769;51.512;5.494;2023-06-26T12:11:31;0.95;;;0.77;;
13807;SDS011;40769;51.512;5.494;2023-06-26T12:13:58;1.48;;;1.13;;
13807;SDS011;40769;51.512;5.494;2023-06-26T12:16:24;1.33;;;0.98;;
13807;SDS011;40769;51.512;5.494;2023-06-26T12:18:50;1.60;;;1.08;;
13807;SDS011;40769;51.512;5.494;2023-06-26T12:24:03;1.20;;;1.10;;
13807;SDS011;40769;51.512;5.494;2023-06-26T12:26:29;2.78;;;1.10;;
13807;SDS011;40769;51.512;5.494;2023-06-26T12:29:08;1.48;;;1.02;;
13807;SDS011;40769;51.512;5.494;2023-06-26T12:31:42;1.55;;;1.08;;
13807;SDS011;40769;51.512;5.494;2023-06-26T12:34:12;2.05;;;0.93;;
13807;SDS011;40769;51.512;5.494;2023-06-26T12:36:42;3.03;;;1.25;;
13807;SDS011;40769;51.512;5.494;2023-06-26T12:39:12;1.38;;;1.10;;
13807;SDS011;40769;51.512;5.494;2023-06-26T12:44:21;1.40;;;1.02;;
13807;SDS011;40769;51.512;5.494;2023-06-26T12:46:53;2.53;;;1.38;;
13807;SDS011;40769;51.512;5.494;2023-06-26T12:52:11;1.30;;;1.00;;
13807;SDS011;40769;51.512;5.494;2023-06-26T12:54:43;0.95;;;0.90;;
13807;SDS011;40769;51.512;5.494;2023-06-26T12:57:11;1.85;;;1.05;;
13807;SDS011;40769;51.512;5.494;2023-06-26T12:59:41;1.23;;;0.80;;
13807;SDS011;40769;51.512;5.494;2023-06-26T13:02:07;1.77;;;1.00;;
13807;SDS011;40769;51.512;5.494;2023-06-26T13:04:34;3.25;;;1.17;;
13807;SDS011;40769;51.512;5.494;2023-06-26T13:07:00;1.17;;;1.05;;
13807;SDS011;40769;51.512;5.494;2023-06-26T13:09:38;2.40;;;1.13;;
13807;SDS011;40769;51.512;5.494;2023-06-26T13:12:09;2.58;;;1.25;;
13807;SDS011;40769;51.512;5.494;2023-06-26T13:14:35;0.90;;;0.90;;
13807;SDS011;40769;51.512;5.494;2023-06-26T13:17:01;2.85;;;1.02;;
13807;SDS011;40769;51.512;5.494;2023-06-26T13:19:27;0.93;;;0.82;;
13807;SDS011;40769;51.512;5.494;2023-06-26T13:21:52;2.40;;;1.15;;
13807;SDS011;40769;51.512;5.494;2023-06-26T13:24:18;2.28;;;0.85;;
13807;SDS011;40769;51.512;5.494;2023-06-26T13:26:44;2.78;;;1.27;;
13807;SDS011;40769;51.512;5.494;2023-06-26T13:29:10;1.80;;;1.08;;
13807;SDS011;40769;51.512;5.494;2023-06-26T13:31:35;1.52;;;1.00;;
13807;SDS011;40769;51.512;5.494;2023-06-26T13:34:02;1.48;;;0.95;;
13807;SDS011;40769;51.512;5.494;2023-06-26T13:36:31;1.17;;;1.02;;
13807;SDS011;40769;51.512;5.494;2023-06-26T13:38:58;1.58;;;1.20;;
13807;SDS011;40769;51.512;5.494;2023-06-26T13:41:25;1.60;;;0.95;;
13807;SDS011;40769;51.512;5.494;2023-06-26T13:43:51;2.08;;;1.10;;
13807;SDS011;40769;51.512;5.494;2023-06-26T13:46:19;1.80;;;1.13;;
13807;SDS011;40769;51.512;5.494;2023-06-26T13:48:45;1.02;;;1.00;;
13807;SDS011;40769;51.512;5.494;2023-06-26T13:51:11;2.97;;;1.20;;
13807;SDS011;40769;51.512;5.494;2023-06-26T13:53:37;2.47;;;1.02;;
13807;SDS011;40769;51.512;5.494;2023-06-26T13:56:03;1.55;;;1.05;;
13807;SDS011;40769;51.512;5.494;2023-06-26T13:58:29;0.90;;;0.80;;
13807;SDS011;40769;51.512;5.494;2023-06-26T14:00:57;2.55;;;1.02;;
13807;SDS011;40769;51.512;5.494;2023-06-26T14:03:23;1.58;;;1.20;;
13807;SDS011;40769;51.512;5.494;2023-06-26T14:05:49;1.95;;;1.30;;
13807;SDS011;40769;51.512;5.494;2023-06-26T14:08:14;1.38;;;1.00;;
13807;SDS011;40769;51.512;5.494;2023-06-26T14:10:40;1.45;;;1.10;;
13807;SDS011;40769;51.512;5.494;2023-06-26T14:13:06;1.15;;;1.10;;
13807;SDS011;40769;51.512;5.494;2023-06-26T14:15:33;2.22;;;1.10;;
13807;SDS011;40769;51.512;5.494;2023-06-26T14:18:03;0.85;;;0.80;;
13807;SDS011;40769;51.512;5.494;2023-06-26T14:20:34;2.85;;;1.13;;
13807;SDS011;40769;51.512;5.494;2023-06-26T14:23:04;2.65;;;1.10;;
13807;SDS011;40769;51.512;5.494;2023-06-26T14:25:30;1.90;;;1.10;;
13807;SDS011;40769;51.512;5.494;2023-06-26T14:27:56;1.88;;;1.08;;
13807;SDS011;40769;51.512;5.494;2023-06-26T14:30:22;1.95;;;1.00;;
13807;SDS011;40769;51.512;5.494;2023-06-26T14:32:48;1.23;;;1.00;;
13807;SDS011;40769;51.512;5.494;2023-06-26T14:35:14;1.95;;;1.10;;
13807;SDS011;40769;51.512;5.494;2023-06-26T14:37:40;2.08;;;1.15;;
13807;SDS011;40769;51.512;5.494;2023-06-26T14:40:07;1.35;;;0.93;;
13807;SDS011;40769;51.512;5.494;2023-06-26T14:42:33;2.67;;;1.00;;
13807;SDS011;40769;51.512;5.494;2023-06-26T14:45:02;1.70;;;1.13;;
13807;SDS011;40769;51.512;5.494;2023-06-26T14:47:28;1.55;;;1.00;;
13807;SDS011;40769;51.512;5.494;2023-06-26T14:49:57;1.30;;;1.10;;
13807;SDS011;40769;51.512;5.494;2023-06-26T14:52:22;1.27;;;0.98;;
13807;SDS011;40769;51.512;5.494;2023-06-26T14:54:51;1.05;;;0.95;;
13807;SDS011;40769;51.512;5.494;2023-06-26T14:57:17;1.20;;;1.10;;
13807;SDS011;40769;51.512;5.494;2023-06-26T14:59:43;1.67;;;1.20;;
13807;SDS011;40769;51.512;5.494;2023-06-26T15:02:08;1.10;;;1.00;;
13807;SDS011;40769;51.512;5.494;2023-06-26T15:04:34;2.13;;;1.33;;
13807;SDS011;40769;51.512;5.494;2023-06-26T15:07:00;2.05;;;1.00;;
13807;SDS011;40769;51.512;5.494;2023-06-26T15:09:25;1.13;;;1.00;;
13807;SDS011;40769;51.512;5.494;2023-06-26T15:11:53;1.00;;;1.00;;
13807;SDS011;40769;51.512;5.494;2023-06-26T15:14:19;2.03;;;0.90;;
13807;SDS011;40769;51.512;5.494;2023-06-26T15:16:49;1.75;;;0.90;;
13807;SDS011;40769;51.512;5.494;2023-06-26T15:19:14;1.65;;;0.90;;
13807;SDS011;40769;51.512;5.494;2023-06-26T15:21:40;0.75;;;0.75;;
13807;SDS011;40769;51.512;5.494;2023-06-26T15:24:06;1.08;;;0.98;;